createdAt,value
2022-12-06T00:00:27.124Z,0
2022-12-06T00:01:30.625Z,0
2022-12-06T00:02:33.736Z,0
2022-12-06T00:03:37.105Z,0
2022-12-06T00:04:41.085Z,0
2022-12-06T00:05:46.313Z,0
2022-12-06T00:06:49.252Z,0
2022-12-06T00:07:53.135Z,0
2022-12-06T00:08:56.913Z,0
2022-12-06T00:09:59.900Z,0
2022-12-06T00:11:03.947Z,0
2022-12-06T00:12:06.162Z,0
2022-12-06T00:13:08.902Z,0
2022-12-06T00:14:11.710Z,0
2022-12-06T00:15:14.413Z,0
2022-12-06T00:16:17.073Z,0
2022-12-06T00:17:21.172Z,0
2022-12-06T00:18:23.640Z,0
2022-12-06T00:19:26.641Z,0
2022-12-06T00:20:30.455Z,0
2022-12-06T00:21:34.208Z,0
2022-12-06T00:22:36.636Z,0
2022-12-06T00:23:39.051Z,0
2022-12-06T00:24:42.191Z,0
2022-12-06T00:25:45.241Z,0
2022-12-06T00:26:48.301Z,0
2022-12-06T00:27:51.024Z,0
2022-12-06T00:28:54.085Z,0
2022-12-06T00:29:56.880Z,0
2022-12-06T00:31:02.069Z,0
2022-12-06T00:32:05.556Z,0
2022-12-06T00:33:08.677Z,0
2022-12-06T00:34:12.362Z,0
2022-12-06T00:35:15.786Z,0
2022-12-06T00:36:19.519Z,0
2022-12-06T00:37:22.633Z,0
2022-12-06T00:38:25.339Z,0
2022-12-06T00:39:28.389Z,0
2022-12-06T00:40:31.529Z,0
2022-12-06T00:41:34.526Z,0
2022-12-06T00:42:37.872Z,0
2022-12-06T00:43:41.384Z,0
2022-12-06T00:44:44.657Z,0
2022-12-06T00:45:47.020Z,0
2022-12-06T00:46:49.836Z,0
2022-12-06T00:47:52.413Z,0
2022-12-06T00:48:54.839Z,0
2022-12-06T00:49:58.446Z,0
2022-12-06T00:51:03.362Z,0
2022-12-06T00:52:06.541Z,0
2022-12-06T00:53:09.628Z,0
2022-12-06T00:54:12.605Z,0
2022-12-06T00:55:15.860Z,0
2022-12-06T00:56:18.440Z,0
2022-12-06T00:57:21.133Z,0
2022-12-06T00:58:24.461Z,0
2022-12-06T00:59:27.242Z,0
2022-12-06T01:00:30.011Z,0
2022-12-06T01:01:32.621Z,0
2022-12-06T01:02:35.683Z,0
2022-12-06T01:03:38.863Z,0
2022-12-06T01:04:42.669Z,0
2022-12-06T01:05:45.501Z,0
2022-12-06T01:06:48.851Z,0
2022-12-06T01:07:52.517Z,0
2022-12-06T01:08:56.226Z,0
2022-12-06T01:09:58.791Z,0
2022-12-06T01:11:03.497Z,0
2022-12-06T01:12:06.574Z,0
2022-12-06T01:13:09.781Z,0
2022-12-06T01:14:12.834Z,0
2022-12-06T01:15:16.152Z,0
2022-12-06T01:16:19.189Z,0
2022-12-06T01:17:22.245Z,0
2022-12-06T01:18:24.101Z,0
2022-12-06T01:19:27.264Z,0
2022-12-06T01:20:30.435Z,0
2022-12-06T01:21:32.905Z,0
2022-12-06T01:22:36.068Z,0
2022-12-06T01:23:39.539Z,0
2022-12-06T01:24:42.556Z,0
2022-12-06T01:25:44.697Z,0
2022-12-06T01:26:47.957Z,0
2022-12-06T01:27:50.379Z,0
2022-12-06T01:28:53.801Z,0
2022-12-06T01:29:57.092Z,0
2022-12-06T01:31:03.303Z,0
2022-12-06T01:32:06.838Z,0
2022-12-06T01:33:08.698Z,0
2022-12-06T01:34:12.109Z,0
2022-12-06T01:35:15.086Z,0
2022-12-06T01:36:18.059Z,0
2022-12-06T01:37:20.673Z,0
2022-12-06T01:38:23.449Z,0
2022-12-06T01:39:26.631Z,0
2022-12-06T01:40:29.929Z,0
2022-12-06T01:41:32.427Z,0
2022-12-06T01:42:35.794Z,0
2022-12-06T01:43:38.672Z,0
2022-12-06T01:44:41.391Z,0
2022-12-06T01:45:44.394Z,0
2022-12-06T01:46:47.895Z,0
2022-12-06T01:47:51.299Z,0
2022-12-06T01:48:54.445Z,0
2022-12-06T01:49:57.951Z,0
2022-12-06T01:51:03.097Z,0
2022-12-06T01:52:05.052Z,0
2022-12-06T01:53:07.898Z,0
2022-12-06T01:54:10.478Z,0
2022-12-06T01:55:14.223Z,0
2022-12-06T01:56:17.957Z,0
2022-12-06T01:57:21.339Z,0
2022-12-06T01:58:24.686Z,0
2022-12-06T01:59:27.656Z,0
2022-12-06T02:00:30.437Z,0
2022-12-06T02:01:33.159Z,0
2022-12-06T02:02:36.706Z,0
2022-12-06T02:03:40.198Z,0
2022-12-06T02:04:43.256Z,0
2022-12-06T02:05:46.027Z,0
2022-12-06T02:06:48.808Z,0
2022-12-06T02:07:51.856Z,0
2022-12-06T02:08:54.954Z,0
2022-12-06T02:09:58.257Z,0
2022-12-06T02:11:04.185Z,0
2022-12-06T02:12:07.297Z,0
2022-12-06T02:13:09.718Z,0
2022-12-06T02:14:12.420Z,0
2022-12-06T02:15:15.272Z,0
2022-12-06T02:16:18.363Z,0
2022-12-06T02:17:21.871Z,0
2022-12-06T02:18:24.648Z,0
2022-12-06T02:19:28.283Z,0
2022-12-06T02:20:31.152Z,0
2022-12-06T02:21:34.524Z,0
2022-12-06T02:22:37.676Z,0
2022-12-06T02:23:39.818Z,0
2022-12-06T02:24:43.016Z,0
2022-12-06T02:25:46.421Z,0
2022-12-06T02:26:49.883Z,0
2022-12-06T02:27:52.329Z,0
2022-12-06T02:28:55.039Z,0
2022-12-06T02:29:57.898Z,0
2022-12-06T02:31:02.985Z,0
2022-12-06T02:32:05.922Z,0
2022-12-06T02:33:09.603Z,0
2022-12-06T02:34:12.473Z,0
2022-12-06T02:35:15.463Z,0
2022-12-06T02:36:18.170Z,0
2022-12-06T02:37:21.500Z,0
2022-12-06T02:38:24.072Z,0
2022-12-06T02:39:26.953Z,0
2022-12-06T02:40:29.967Z,0
2022-12-06T02:41:33.235Z,0
2022-12-06T02:42:37.314Z,0
2022-12-06T02:43:40.953Z,0
2022-12-06T02:44:42.908Z,0
2022-12-06T02:45:46.725Z,0
2022-12-06T02:46:49.580Z,0
2022-12-06T02:47:52.353Z,0
2022-12-06T02:48:55.130Z,0
2022-12-06T02:49:58.422Z,0
2022-12-06T02:51:03.530Z,0
2022-12-06T02:52:06.342Z,0
2022-12-06T02:53:08.847Z,0
2022-12-06T02:54:11.338Z,0
2022-12-06T02:55:14.821Z,0
2022-12-06T02:56:17.567Z,0
2022-12-06T02:57:20.359Z,0
2022-12-06T02:58:24.090Z,0
2022-12-06T02:59:27.245Z,0
2022-12-06T03:00:29.671Z,0
2022-12-06T03:01:33.119Z,0
2022-12-06T03:02:36.340Z,0
2022-12-06T03:03:40.015Z,0
2022-12-06T03:04:42.513Z,0
2022-12-06T03:05:45.574Z,0
2022-12-06T03:06:48.547Z,0
2022-12-06T03:07:51.667Z,0
2022-12-06T03:08:55.206Z,0
2022-12-06T03:09:58.270Z,0
2022-12-06T03:11:03.830Z,0
2022-12-06T03:12:06.481Z,0
2022-12-06T03:13:09.757Z,0
2022-12-06T03:14:14.732Z,0
2022-12-06T03:15:18.111Z,0
2022-12-06T03:16:20.600Z,0
2022-12-06T03:17:23.445Z,0
2022-12-06T03:18:26.496Z,0
2022-12-06T03:19:28.992Z,0
2022-12-06T03:20:32.087Z,0
2022-12-06T03:21:35.165Z,0
2022-12-06T03:22:40.096Z,0
2022-12-06T03:23:43.071Z,0
2022-12-06T03:24:46.121Z,0
2022-12-06T03:25:49.259Z,0
2022-12-06T03:26:52.042Z,0
2022-12-06T03:27:54.314Z,0
2022-12-06T03:28:57.932Z,0
2022-12-06T03:30:01.845Z,0
2022-12-06T03:31:05.838Z,0
2022-12-06T03:32:09.651Z,0
2022-12-06T03:33:13.145Z,0
2022-12-06T03:34:16.550Z,0
2022-12-06T03:35:18.845Z,0
2022-12-06T03:36:22.294Z,0
2022-12-06T03:37:25.336Z,0
2022-12-06T03:38:28.672Z,0
2022-12-06T03:39:31.502Z,0
2022-12-06T03:40:34.072Z,0
2022-12-06T03:41:37.320Z,0
2022-12-06T03:42:40.440Z,0
2022-12-06T03:43:43.305Z,0
2022-12-06T03:44:46.734Z,0
2022-12-06T03:45:50.063Z,0
2022-12-06T03:46:53.854Z,0
2022-12-06T03:47:57.135Z,0
2022-12-06T03:48:59.900Z,0
2022-12-06T03:50:03.147Z,0
2022-12-06T03:51:05.784Z,0
2022-12-06T03:52:07.924Z,0
2022-12-06T03:53:10.697Z,0
2022-12-06T03:54:13.132Z,0
2022-12-06T03:55:16.578Z,0
2022-12-06T03:56:20.093Z,0
2022-12-06T03:57:23.174Z,0
2022-12-06T03:58:25.756Z,0
2022-12-06T03:59:29.123Z,0
2022-12-06T04:00:31.972Z,0
2022-12-06T04:01:35.755Z,0
2022-12-06T04:02:39.233Z,0
2022-12-06T04:03:42.645Z,0
2022-12-06T04:04:45.830Z,0
2022-12-06T04:05:47.686Z,0
2022-12-06T04:06:50.741Z,0
2022-12-06T04:07:53.081Z,0
2022-12-06T04:08:56.795Z,0
2022-12-06T04:09:59.810Z,0
2022-12-06T04:11:04.773Z,0
2022-12-06T04:12:06.918Z,0
2022-12-06T04:13:09.785Z,0
2022-12-06T04:14:21.755Z,0
2022-12-06T04:15:24.657Z,0
2022-12-06T04:16:27.740Z,0
2022-12-06T04:17:32.042Z,0
2022-12-06T04:18:34.768Z,0
2022-12-06T04:19:37.817Z,0
2022-12-06T04:20:40.240Z,0
2022-12-06T04:21:42.736Z,0
2022-12-06T04:22:45.229Z,0
2022-12-06T04:23:48.658Z,0
2022-12-06T04:24:51.912Z,0
2022-12-06T04:25:54.329Z,0
2022-12-06T04:26:57.650Z,0
2022-12-06T04:28:00.696Z,0
2022-12-06T04:29:03.479Z,0
2022-12-06T04:30:06.952Z,0
2022-12-06T04:31:09.175Z,0
2022-12-06T04:32:18.353Z,0
2022-12-06T04:33:22.098Z,0
2022-12-06T04:34:25.470Z,0
2022-12-06T04:35:28.250Z,0
2022-12-06T04:36:31.223Z,0
2022-12-06T04:37:34.273Z,0
2022-12-06T04:38:37.145Z,0
2022-12-06T04:39:40.123Z,0
2022-12-06T04:40:42.617Z,0
2022-12-06T04:41:45.030Z,0
2022-12-06T04:42:47.531Z,0
2022-12-06T04:43:50.231Z,0
2022-12-06T04:44:53.288Z,0
2022-12-06T04:45:55.980Z,0
2022-12-06T04:46:58.633Z,0
2022-12-06T04:48:02.669Z,0
2022-12-06T04:49:05.569Z,0
2022-12-06T04:50:09.083Z,0
2022-12-06T04:51:12.219Z,0
2022-12-06T04:52:14.845Z,0
2022-12-06T04:53:17.545Z,0
2022-12-06T04:54:21.259Z,0
2022-12-06T04:55:23.992Z,0
2022-12-06T04:56:27.251Z,0
2022-12-06T04:57:30.293Z,0
2022-12-06T04:58:33.208Z,0
2022-12-06T04:59:36.633Z,0
2022-12-06T05:00:40.368Z,0
2022-12-06T05:01:43.697Z,0
2022-12-06T05:02:46.584Z,0
2022-12-06T05:03:49.969Z,0
2022-12-06T05:04:54.012Z,0
2022-12-06T05:05:57.177Z,0
2022-12-06T05:06:59.973Z,0
2022-12-06T05:08:03.437Z,0
2022-12-06T05:09:07.532Z,0
2022-12-06T05:10:10.580Z,0
2022-12-06T05:11:13.001Z,0
2022-12-06T05:12:15.696Z,0
2022-12-06T05:13:18.745Z,0
2022-12-06T05:14:21.594Z,0
2022-12-06T05:15:27.864Z,0
2022-12-06T05:16:32.853Z,0
2022-12-06T05:17:35.284Z,0
2022-12-06T05:18:38.760Z,0
2022-12-06T05:19:41.760Z,0
2022-12-06T05:20:45.759Z,0
2022-12-06T05:21:48.905Z,0
2022-12-06T05:22:52.885Z,0
2022-12-06T05:23:55.735Z,0
2022-12-06T05:24:58.718Z,0
2022-12-06T05:26:01.772Z,0
2022-12-06T05:27:05.409Z,0
2022-12-06T05:28:07.910Z,0
2022-12-06T05:29:10.435Z,0
2022-12-06T05:30:13.215Z,0
2022-12-06T05:31:16.071Z,0
2022-12-06T05:32:19.643Z,0
2022-12-06T05:33:22.158Z,0
2022-12-06T05:34:26.180Z,0
2022-12-06T05:35:29.165Z,0
2022-12-06T05:36:32.964Z,0
2022-12-06T05:37:36.318Z,0
2022-12-06T05:38:39.092Z,0
2022-12-06T05:39:42.074Z,0
2022-12-06T05:40:45.053Z,0
2022-12-06T05:41:47.928Z,0
2022-12-06T05:42:50.626Z,0
2022-12-06T05:43:53.335Z,0
2022-12-06T05:44:55.528Z,0
2022-12-06T05:45:59.046Z,0
2022-12-06T05:47:02.757Z,0
2022-12-06T05:48:05.894Z,0
2022-12-06T05:49:09.290Z,0
2022-12-06T05:50:13.047Z,0
2022-12-06T05:51:16.571Z,0
2022-12-06T05:52:20.028Z,0
2022-12-06T05:53:22.729Z,0
2022-12-06T05:54:25.431Z,0
2022-12-06T05:55:28.559Z,0
2022-12-06T05:56:31.338Z,0
2022-12-06T05:57:34.480Z,0
2022-12-06T05:58:37.634Z,0
2022-12-06T05:59:40.337Z,0
2022-12-06T06:00:42.951Z,0
2022-12-06T06:01:45.579Z,0
2022-12-06T06:02:48.830Z,0
2022-12-06T06:03:52.966Z,0
2022-12-06T06:04:56.600Z,0
2022-12-06T06:05:59.699Z,0
2022-12-06T06:07:02.439Z,0
2022-12-06T06:08:06.253Z,0
2022-12-06T06:09:09.456Z,0
2022-12-06T06:10:12.227Z,0
2022-12-06T06:11:15.197Z,0
2022-12-06T06:12:18.250Z,0
2022-12-06T06:13:21.297Z,0
2022-12-06T06:14:23.573Z,0
2022-12-06T06:15:26.335Z,0
2022-12-06T06:16:29.463Z,0
2022-12-06T06:17:32.119Z,0
2022-12-06T06:18:34.819Z,0
2022-12-06T06:19:37.592Z,0
2022-12-06T06:20:40.093Z,0
2022-12-06T06:21:43.184Z,0
2022-12-06T06:22:46.180Z,0
2022-12-06T06:23:49.927Z,0
2022-12-06T06:24:53.596Z,0
2022-12-06T06:25:56.368Z,0
2022-12-06T06:26:59.136Z,0
2022-12-06T06:28:01.907Z,0
2022-12-06T06:29:04.335Z,0
2022-12-06T06:30:06.923Z,0
2022-12-06T06:31:09.697Z,0
2022-12-06T06:32:12.584Z,0
2022-12-06T06:33:15.660Z,0
2022-12-06T06:34:18.466Z,0
2022-12-06T06:35:21.276Z,0
2022-12-06T06:36:24.497Z,0
2022-12-06T06:37:27.872Z,0
2022-12-06T06:38:31.399Z,0
2022-12-06T06:39:34.865Z,0
2022-12-06T06:40:38.235Z,0
2022-12-06T06:41:41.928Z,0
2022-12-06T06:42:45.002Z,0
2022-12-06T06:43:48.159Z,4
2022-12-06T06:44:50.299Z,4
2022-12-06T06:45:53.477Z,0
2022-12-06T06:46:57.811Z,0
2022-12-06T06:48:00.229Z,4
2022-12-06T06:49:03.053Z,4
2022-12-06T06:50:05.462Z,4
2022-12-06T06:51:08.159Z,4
2022-12-06T06:52:10.952Z,8
2022-12-06T06:53:13.640Z,8
2022-12-06T06:54:16.717Z,8
2022-12-06T06:55:20.194Z,8
2022-12-06T06:56:23.638Z,8
2022-12-06T06:57:26.756Z,12
2022-12-06T06:58:29.811Z,12
2022-12-06T06:59:32.855Z,16
2022-12-06T07:00:36.559Z,20
2022-12-06T07:01:39.989Z,20
2022-12-06T07:02:43.726Z,24
2022-12-06T07:03:47.059Z,28
2022-12-06T07:04:49.640Z,28
2022-12-06T07:05:52.976Z,36
2022-12-06T07:06:56.031Z,40
2022-12-06T07:07:59.486Z,48
2022-12-06T07:09:02.606Z,56
2022-12-06T07:10:06.040Z,60
2022-12-06T07:11:09.827Z,64
2022-12-06T07:12:12.679Z,68
2022-12-06T07:13:16.281Z,68
2022-12-06T07:14:19.059Z,72
2022-12-06T07:15:21.192Z,84
2022-12-06T07:16:24.410Z,96
2022-12-06T07:17:27.897Z,100
2022-12-06T07:18:30.737Z,96
2022-12-06T07:19:34.025Z,96
2022-12-06T07:20:37.144Z,100
2022-12-06T07:21:40.347Z,100
2022-12-06T07:22:43.131Z,96
2022-12-06T07:23:46.284Z,108
2022-12-06T07:24:52.359Z,112
2022-12-06T07:25:55.551Z,108
2022-12-06T07:26:59.357Z,120
2022-12-06T07:28:02.484Z,124
2022-12-06T07:29:06.196Z,128
2022-12-06T07:30:09.945Z,128
2022-12-06T07:31:29.647Z,148
2022-12-06T07:32:33.131Z,160
2022-12-06T07:33:36.297Z,168
2022-12-06T07:34:39.728Z,192
2022-12-06T07:36:10.698Z,216
2022-12-06T07:37:16.990Z,244
2022-12-06T07:38:19.782Z,268
2022-12-06T07:39:22.312Z,268
2022-12-06T07:40:41.518Z,280
2022-12-06T07:42:08.322Z,332
2022-12-06T07:43:10.868Z,364
2022-12-06T07:44:13.937Z,380
2022-12-06T07:45:16.641Z,380
2022-12-06T07:46:19.334Z,388
2022-12-06T07:47:23.119Z,392
2022-12-06T07:48:26.828Z,368
2022-12-06T07:49:29.527Z,356
2022-12-06T07:50:32.918Z,356
2022-12-06T07:51:35.994Z,368
2022-12-06T07:52:39.251Z,376
2022-12-06T07:53:41.949Z,368
2022-12-06T07:54:45.332Z,360
2022-12-06T07:55:48.530Z,340
2022-12-06T07:56:51.589Z,360
2022-12-06T07:57:55.727Z,380
2022-12-06T07:58:59.197Z,408
2022-12-06T08:00:02.243Z,436
2022-12-06T08:01:05.815Z,428
2022-12-06T08:02:09.184Z,444
2022-12-06T08:03:11.984Z,452
2022-12-06T08:04:14.591Z,516
2022-12-06T08:05:17.891Z,600
2022-12-06T08:06:21.651Z,572
2022-12-06T08:07:25.117Z,596
2022-12-06T08:08:29.212Z,652
2022-12-06T08:09:32.156Z,660
2022-12-06T08:10:35.312Z,632
2022-12-06T08:11:38.319Z,636
2022-12-06T08:12:41.911Z,620
2022-12-06T08:13:45.416Z,648
2022-12-06T08:14:48.216Z,652
2022-12-06T08:15:50.662Z,676
2022-12-06T08:16:54.348Z,676
2022-12-06T08:17:57.682Z,704
2022-12-06T08:19:01.120Z,728
2022-12-06T08:20:04.595Z,760
2022-12-06T08:21:07.964Z,804
2022-12-06T08:22:10.659Z,804
2022-12-06T08:23:13.741Z,852
2022-12-06T08:24:17.188Z,820
2022-12-06T08:25:20.895Z,776
2022-12-06T08:26:24.053Z,812
2022-12-06T08:27:26.877Z,872
2022-12-06T08:28:29.861Z,920
2022-12-06T08:29:33.414Z,892
2022-12-06T08:30:37.143Z,856
2022-12-06T08:31:40.779Z,928
2022-12-06T08:32:45.100Z,944
2022-12-06T08:33:47.877Z,880
2022-12-06T08:34:51.600Z,792
2022-12-06T08:35:55.306Z,828
2022-12-06T08:37:03.072Z,804
2022-12-06T08:38:06.542Z,828
2022-12-06T08:39:09.513Z,756
2022-12-06T08:40:12.020Z,688
2022-12-06T08:41:14.814Z,696
2022-12-06T08:42:20.735Z,700
2022-12-06T08:43:28.727Z,748
2022-12-06T08:44:31.787Z,732
2022-12-06T08:45:35.916Z,816
2022-12-06T08:46:39.126Z,908
2022-12-06T08:47:42.730Z,808
2022-12-06T08:48:45.527Z,800
2022-12-06T08:49:48.648Z,868
2022-12-06T08:50:51.227Z,908
2022-12-06T08:51:54.368Z,908
2022-12-06T08:52:57.523Z,940
2022-12-06T08:54:01.027Z,964
2022-12-06T08:55:04.470Z,912
2022-12-06T08:56:07.241Z,780
2022-12-06T08:57:10.366Z,696
2022-12-06T08:58:13.216Z,632
2022-12-06T08:59:16.977Z,616
2022-12-06T09:00:20.011Z,624
2022-12-06T09:01:23.635Z,612
2022-12-06T09:02:26.958Z,604
2022-12-06T09:03:30.079Z,672
2022-12-06T09:04:33.001Z,712
2022-12-06T09:05:36.758Z,676
2022-12-06T09:06:39.750Z,744
2022-12-06T09:07:42.821Z,840
2022-12-06T09:08:45.943Z,928
2022-12-06T09:09:49.301Z,1032
2022-12-06T09:10:52.074Z,1068
2022-12-06T09:11:54.845Z,1132
2022-12-06T09:12:57.345Z,1136
2022-12-06T09:13:59.762Z,1164
2022-12-06T09:15:03.142Z,1260
2022-12-06T09:16:06.762Z,1300
2022-12-06T09:17:10.718Z,1256
2022-12-06T09:18:13.604Z,1228
2022-12-06T09:19:16.310Z,1096
2022-12-06T09:20:19.858Z,1036
2022-12-06T09:21:22.347Z,1072
2022-12-06T09:22:25.684Z,1060
2022-12-06T09:23:28.191Z,1004
2022-12-06T09:24:31.305Z,928
2022-12-06T09:25:34.435Z,944
2022-12-06T09:26:37.223Z,976
2022-12-06T09:27:40.580Z,1012
2022-12-06T09:28:43.561Z,1068
2022-12-06T09:29:46.913Z,1044
2022-12-06T09:30:49.956Z,980
2022-12-06T09:31:53.574Z,900
2022-12-06T09:32:57.383Z,920
2022-12-06T09:34:00.474Z,1020
2022-12-06T09:35:03.893Z,1152
2022-12-06T09:36:17.357Z,1212
2022-12-06T09:37:20.132Z,1444
2022-12-06T09:38:23.201Z,1564
2022-12-06T09:39:25.977Z,1760
2022-12-06T09:40:27.841Z,1964
2022-12-06T09:41:31.007Z,1928
2022-12-06T09:42:34.644Z,2032
2022-12-06T09:43:37.812Z,2192
2022-12-06T09:44:40.862Z,2624
2022-12-06T09:45:44.016Z,3212
2022-12-06T09:46:47.559Z,3336
2022-12-06T09:47:50.968Z,3224
2022-12-06T09:48:54.822Z,3036
2022-12-06T09:49:58.800Z,3292
2022-12-06T09:51:04.099Z,3608
2022-12-06T09:52:06.584Z,3716
2022-12-06T09:53:09.906Z,3560
2022-12-06T09:54:13.054Z,3244
2022-12-06T09:55:16.179Z,2688
2022-12-06T09:56:19.254Z,2432
2022-12-06T09:57:22.678Z,2632
2022-12-06T09:58:25.747Z,2584
2022-12-06T09:59:28.164Z,2464
2022-12-06T10:00:31.942Z,2348
2022-12-06T10:01:35.438Z,2044
2022-12-06T10:02:39.532Z,1964
2022-12-06T10:03:42.372Z,2000
2022-12-06T10:04:46.405Z,1944
2022-12-06T10:05:52.007Z,1820
2022-12-06T10:06:54.955Z,1772
2022-12-06T10:07:57.628Z,1632
2022-12-06T10:09:01.615Z,1444
2022-12-06T10:10:06.418Z,1612
2022-12-06T10:11:09.265Z,1688
2022-12-06T10:12:12.314Z,1592
2022-12-06T10:13:15.738Z,1792
2022-12-06T10:14:18.581Z,2088
2022-12-06T10:15:21.894Z,1924
2022-12-06T10:16:25.288Z,1932
2022-12-06T10:17:29.055Z,1836
2022-12-06T10:18:32.444Z,1836
2022-12-06T10:19:35.236Z,2008
2022-12-06T10:20:39.051Z,2048
2022-12-06T10:21:42.343Z,2068
2022-12-06T10:22:44.834Z,1980
2022-12-06T10:23:48.102Z,2116
2022-12-06T10:24:51.537Z,2340
2022-12-06T10:25:54.338Z,2208
2022-12-06T10:26:57.595Z,2304
2022-12-06T10:28:00.441Z,2320
2022-12-06T10:29:03.770Z,2516
2022-12-06T10:30:06.817Z,2636
2022-12-06T10:31:09.899Z,2628
2022-12-06T10:32:13.689Z,2608
2022-12-06T10:33:16.577Z,2812
2022-12-06T10:34:20.239Z,3304
2022-12-06T10:35:23.282Z,3760
2022-12-06T10:36:27.302Z,3980
2022-12-06T10:37:30.054Z,3996
2022-12-06T10:38:32.836Z,3936
2022-12-06T10:39:35.911Z,3904
2022-12-06T10:40:38.411Z,3892
2022-12-06T10:41:41.457Z,3876
2022-12-06T10:42:44.454Z,3908
2022-12-06T10:43:47.622Z,3984
2022-12-06T10:44:50.957Z,4140
2022-12-06T10:45:54.100Z,4336
2022-12-06T10:46:57.544Z,4388
2022-12-06T10:48:02.023Z,4204
2022-12-06T10:49:05.078Z,4248
2022-12-06T10:50:07.818Z,4028
2022-12-06T10:51:10.690Z,3836
2022-12-06T10:52:14.736Z,3772
2022-12-06T10:53:17.584Z,3632
2022-12-06T10:54:21.372Z,3576
2022-12-06T10:55:25.645Z,3472
2022-12-06T10:56:28.703Z,3564
2022-12-06T10:57:31.564Z,3900
2022-12-06T10:58:34.620Z,4240
2022-12-06T10:59:38.056Z,4588
2022-12-06T11:00:40.546Z,4788
2022-12-06T11:01:44.709Z,5008
2022-12-06T11:02:47.352Z,5420
2022-12-06T11:03:50.132Z,5824
2022-12-06T11:04:53.823Z,6212
2022-12-06T11:05:56.937Z,6312
2022-12-06T11:07:00.572Z,6336
2022-12-06T11:08:04.491Z,5444
2022-12-06T11:09:08.440Z,5792
2022-12-06T11:10:12.040Z,5872
2022-12-06T11:11:15.392Z,5492
2022-12-06T11:12:18.506Z,6140
2022-12-06T11:13:21.233Z,6428
2022-12-06T11:14:24.349Z,6804
2022-12-06T11:15:26.601Z,6024
2022-12-06T11:16:29.618Z,7976
2022-12-06T11:17:32.777Z,8404
2022-12-06T11:18:35.826Z,7980
2022-12-06T11:19:39.158Z,8532
2022-12-06T11:20:42.884Z,7668
2022-12-06T11:21:46.358Z,9476
2022-12-06T11:22:49.616Z,8880
2022-12-06T11:23:53.651Z,9288
2022-12-06T11:24:56.839Z,9068
2022-12-06T11:25:59.687Z,8280
2022-12-06T11:27:02.572Z,5400
2022-12-06T11:28:05.345Z,4812
2022-12-06T11:29:08.200Z,4572
2022-12-06T11:30:12.821Z,4800
2022-12-06T11:31:23.791Z,5628
2022-12-06T11:32:27.316Z,4980
2022-12-06T11:33:30.669Z,5492
2022-12-06T11:34:34.143Z,7400
2022-12-06T11:35:36.841Z,5080
2022-12-06T11:36:39.529Z,6408
2022-12-06T11:37:44.577Z,6020
2022-12-06T11:38:48.078Z,5976
2022-12-06T11:39:51.903Z,6360
2022-12-06T11:40:54.706Z,6708
2022-12-06T11:41:58.070Z,6776
2022-12-06T11:43:01.712Z,6460
2022-12-06T11:44:05.399Z,5460
2022-12-06T11:45:08.280Z,5136
2022-12-06T11:46:11.060Z,5024
2022-12-06T11:47:14.092Z,5280
2022-12-06T11:48:16.686Z,4264
2022-12-06T11:49:20.324Z,3748
2022-12-06T11:50:22.750Z,3388
2022-12-06T11:51:25.807Z,3936
2022-12-06T11:52:28.866Z,4184
2022-12-06T11:53:32.937Z,4988
2022-12-06T11:54:36.581Z,4608
2022-12-06T11:55:40.400Z,3572
2022-12-06T11:56:43.979Z,3008
2022-12-06T11:57:46.838Z,3116
2022-12-06T11:58:49.537Z,3284
2022-12-06T11:59:52.239Z,2992
2022-12-06T12:00:56.019Z,3144
2022-12-06T12:01:59.122Z,3148
2022-12-06T12:03:03.279Z,3788
2022-12-06T12:04:06.895Z,3216
2022-12-06T12:05:10.608Z,2380
2022-12-06T12:06:12.909Z,2192
2022-12-06T12:07:16.270Z,2508
2022-12-06T12:08:19.315Z,3380
2022-12-06T12:09:23.156Z,3872
2022-12-06T12:10:26.550Z,3316
2022-12-06T12:11:30.080Z,2660
2022-12-06T12:12:34.193Z,2644
2022-12-06T12:13:36.726Z,2752
2022-12-06T12:14:39.896Z,3164
2022-12-06T12:15:52.766Z,4316
2022-12-06T12:16:56.243Z,4924
2022-12-06T12:17:59.916Z,4672
2022-12-06T12:19:02.699Z,4052
2022-12-06T12:20:05.704Z,3692
2022-12-06T12:21:08.419Z,3776
2022-12-06T12:22:10.993Z,3716
2022-12-06T12:23:13.964Z,3224
2022-12-06T12:24:17.309Z,2464
2022-12-06T12:25:20.737Z,1992
2022-12-06T12:26:26.173Z,2068
2022-12-06T12:27:29.996Z,2252
2022-12-06T12:28:33.472Z,2616
2022-12-06T12:29:37.110Z,2944
2022-12-06T12:30:39.362Z,3300
2022-12-06T12:31:42.972Z,3220
2022-12-06T12:32:46.954Z,3056
2022-12-06T12:33:50.026Z,2848
2022-12-06T12:34:53.165Z,2608
2022-12-06T12:35:56.317Z,2416
2022-12-06T12:36:59.504Z,2116
2022-12-06T12:38:02.277Z,2052
2022-12-06T12:39:05.608Z,2044
2022-12-06T12:40:10.751Z,1868
2022-12-06T12:41:14.084Z,1868
2022-12-06T12:42:17.335Z,1660
2022-12-06T12:43:21.067Z,1412
2022-12-06T12:44:40.390Z,1240
2022-12-06T12:45:43.523Z,1040
2022-12-06T12:46:47.527Z,928
2022-12-06T12:47:50.622Z,936
2022-12-06T12:48:53.746Z,1088
2022-12-06T12:49:56.606Z,1072
2022-12-06T12:50:59.747Z,980
2022-12-06T12:52:03.126Z,888
2022-12-06T12:53:06.358Z,888
2022-12-06T12:54:09.057Z,948
2022-12-06T12:55:12.021Z,1160
2022-12-06T12:56:14.447Z,1192
2022-12-06T12:57:16.990Z,1088
2022-12-06T12:58:20.614Z,1104
2022-12-06T12:59:24.444Z,1132
2022-12-06T13:00:27.488Z,1144
2022-12-06T13:01:30.743Z,1176
2022-12-06T13:02:34.744Z,1172
2022-12-06T13:03:53.632Z,1088
2022-12-06T13:05:11.366Z,1316
2022-12-06T13:06:50.372Z,1504
2022-12-06T13:07:53.412Z,1580
2022-12-06T13:08:57.019Z,1640
2022-12-06T13:10:00.348Z,1852
2022-12-06T13:11:03.673Z,2252
2022-12-06T13:12:06.885Z,2232
2022-12-06T13:13:10.009Z,2048
2022-12-06T13:14:13.055Z,2196
2022-12-06T13:15:16.891Z,2560
2022-12-06T13:16:20.409Z,2396
2022-12-06T13:17:23.609Z,2896
2022-12-06T13:18:26.681Z,3072
2022-12-06T13:19:29.478Z,2992
2022-12-06T13:20:32.369Z,3020
2022-12-06T13:21:35.135Z,3072
2022-12-06T13:22:38.779Z,3016
2022-12-06T13:23:41.283Z,2912
2022-12-06T13:24:44.633Z,2776
2022-12-06T13:25:47.751Z,2688
2022-12-06T13:26:51.017Z,2428
2022-12-06T13:27:54.063Z,2216
2022-12-06T13:29:01.291Z,2348
2022-12-06T13:30:04.718Z,2080
2022-12-06T13:31:08.594Z,1872
2022-12-06T13:32:11.827Z,1628
2022-12-06T13:33:20.630Z,1352
2022-12-06T13:34:24.350Z,1196
2022-12-06T13:35:27.413Z,1088
2022-12-06T13:36:30.848Z,1048
2022-12-06T13:37:33.897Z,1264
2022-12-06T13:38:36.506Z,1196
2022-12-06T13:39:39.268Z,1000
2022-12-06T13:40:42.519Z,936
2022-12-06T13:41:45.278Z,1216
2022-12-06T13:42:48.359Z,1556
2022-12-06T13:43:51.886Z,1564
2022-12-06T13:44:55.057Z,1420
2022-12-06T13:45:58.142Z,1312
2022-12-06T13:47:02.478Z,1248
2022-12-06T13:48:06.137Z,1080
2022-12-06T13:49:09.193Z,1024
2022-12-06T13:50:12.062Z,1036
2022-12-06T13:51:14.825Z,1148
2022-12-06T13:52:17.808Z,1080
2022-12-06T13:53:21.066Z,996
2022-12-06T13:54:24.501Z,960
2022-12-06T13:55:27.824Z,1068
2022-12-06T13:56:31.224Z,1016
2022-12-06T13:57:34.732Z,852
2022-12-06T13:58:37.857Z,732
2022-12-06T13:59:40.690Z,660
2022-12-06T14:00:44.120Z,644
2022-12-06T14:01:47.634Z,568
2022-12-06T14:02:52.225Z,500
2022-12-06T14:03:55.962Z,472
2022-12-06T14:04:59.665Z,444
2022-12-06T14:06:12.443Z,424
2022-12-06T14:07:18.816Z,404
2022-12-06T14:08:22.240Z,384
2022-12-06T14:09:26.280Z,348
2022-12-06T14:10:29.403Z,340
2022-12-06T14:11:36.696Z,360
2022-12-06T14:12:42.355Z,360
2022-12-06T14:13:46.065Z,364
2022-12-06T14:14:49.493Z,360
2022-12-06T14:15:52.350Z,352
2022-12-06T14:16:55.140Z,340
2022-12-06T14:18:03.511Z,336
2022-12-06T14:19:16.293Z,424
2022-12-06T14:20:19.086Z,468
2022-12-06T14:21:21.524Z,564
2022-12-06T14:22:24.580Z,644
2022-12-06T14:23:28.362Z,684
2022-12-06T14:24:31.720Z,760
2022-12-06T14:25:34.729Z,704
2022-12-06T14:26:38.175Z,604
2022-12-06T14:27:41.511Z,492
2022-12-06T14:28:44.569Z,424
2022-12-06T14:29:46.773Z,388
2022-12-06T14:30:50.437Z,372
2022-12-06T14:31:53.959Z,380
2022-12-06T14:32:57.279Z,356
2022-12-06T14:34:01.376Z,368
2022-12-06T14:35:04.225Z,356
2022-12-06T14:36:07.204Z,372
2022-12-06T14:37:19.250Z,416
2022-12-06T14:38:22.971Z,444
2022-12-06T14:39:26.444Z,452
2022-12-06T14:40:45.630Z,456
2022-12-06T14:41:53.080Z,460
2022-12-06T14:42:56.784Z,452
2022-12-06T14:43:59.767Z,416
2022-12-06T14:45:03.202Z,400
2022-12-06T14:46:06.581Z,404
2022-12-06T14:47:10.228Z,392
2022-12-06T14:48:12.819Z,380
2022-12-06T14:49:16.916Z,356
2022-12-06T14:50:19.999Z,340
2022-12-06T14:51:23.546Z,324
2022-12-06T14:52:26.940Z,316
2022-12-06T14:53:29.995Z,308
2022-12-06T14:54:32.834Z,292
2022-12-06T14:55:35.603Z,280